Time;durP1;ratioP1;P1;durP2;ratioP2;P2;SDS_P1;SDS_P2;PMS_P1;PMS_P2;Temp;Humidity;BMP_temperature;BMP_pressure;BME280_temperature;BME280_humidity;BME280_pressure;Samples;Min_cycle;Max_cycle;Signal;HPM_P1;HPM_P2
2021/07/13 00:02:16;;;;;;;0.50;0.37;;;;;;;21.40;100.00;99504.75;5036869;28;20519;-81
2021/07/13 00:04:43;;;;;;;0.50;0.30;;;;;;;21.36;100.00;99500.59;5037423;28;20449;-81
2021/07/13 00:07:10;;;;;;;0.50;0.30;;;;;;;21.36;100.00;99495.19;5036914;28;20446;-81
2021/07/13 00:09:36;;;;;;;0.40;0.20;;;;;;;21.29;100.00;99497.56;5036022;28;20456;-81
2021/07/13 00:12:03;;;;;;;0.40;0.20;;;;;;;21.29;100.00;99489.44;5034895;28;20449;-81
2021/07/13 00:14:31;;;;;;;0.87;0.87;;;;;;;21.21;100.00;99486.50;5036190;28;20476;-80
2021/07/13 00:16:59;;;;;;;0.40;0.20;;;;;;;21.22;100.00;99490.91;5034919;28;20449;-81
2021/07/13 00:19:27;;;;;;;0.40;0.20;;;;;;;20.89;100.00;99490.09;5034981;28;20437;-80
2021/07/13 00:21:53;;;;;;;0.40;0.20;;;;;;;21.04;100.00;99479.84;5028887;28;20511;-81
2021/07/13 00:24:20;;;;;;;0.40;0.20;;;;;;;20.82;100.00;99472.69;5035254;28;20491;-81
2021/07/13 00:26:47;;;;;;;0.40;0.30;;;;;;;20.72;100.00;99465.50;5025720;28;20465;-81
2021/07/13 00:29:14;;;;;;;0.83;0.83;;;;;;;20.82;100.00;99469.97;5024043;28;20455;-81
2021/07/13 00:31:40;;;;;;;0.40;0.20;;;;;;;21.03;100.00;99480.81;5023743;28;20438;-81
2021/07/13 00:34:07;;;;;;;0.40;0.20;;;;;;;21.05;100.00;99481.53;5023141;28;20443;-81
2021/07/13 00:36:34;;;;;;;0.50;0.40;;;;;;;21.03;100.00;99483.53;5022128;28;20808;-81
2021/07/13 00:39:01;;;;;;;0.40;0.20;;;;;;;21.10;100.00;99482.00;5021474;28;20460;-80
2021/07/13 00:41:28;;;;;;;0.40;0.20;;;;;;;21.06;100.00;99472.44;5022063;28;20449;-81
2021/07/13 00:43:54;;;;;;;0.60;0.50;;;;;;;21.13;100.00;99473.66;5021786;28;20847;-81
2021/07/13 00:46:21;;;;;;;0.50;0.20;;;;;;;21.17;100.00;99476.94;5019835;28;20445;-80
2021/07/13 00:48:48;;;;;;;0.40;0.30;;;;;;;21.20;100.00;99476.69;5019230;28;20453;-81
2021/07/13 00:51:15;;;;;;;0.40;0.30;;;;;;;21.12;100.00;99476.50;5021524;28;20453;-82
2021/07/13 00:53:42;;;;;;;0.50;0.30;;;;;;;21.10;100.00;99482.00;5022687;28;20563;-81
2021/07/13 00:56:10;;;;;;;0.40;0.20;;;;;;;21.07;100.00;99481.41;5024186;28;20456;-82
2021/07/13 00:58:38;;;;;;;0.47;0.30;;;;;;;20.93;100.00;99477.19;5021965;28;20452;-82
2021/07/13 01:01:06;;;;;;;0.40;0.20;;;;;;;20.87;100.00;99477.72;5038719;28;20448;-82
2021/07/13 01:03:36;;;;;;;0.40;0.20;;;;;;;20.86;100.00;99474.16;5022414;28;20492;-82
2021/07/13 01:06:03;;;;;;;1.13;1.13;;;;;;;20.86;100.00;99476.00;5038655;28;20968;-82
2021/07/13 01:08:53;;;;;;;0.40;0.30;;;;;;;20.97;100.00;99471.41;5022980;28;20952;-82
2021/07/13 01:11:20;;;;;;;0.40;0.20;;;;;;;20.79;100.00;99474.78;5015421;28;20432;-81
2021/07/13 01:14:03;;;;;;;0.40;0.20;;;;;;;20.59;100.00;99473.75;5021322;28;20451;-80
2021/07/13 01:16:50;;;;;;;0.50;0.40;;;;;;;20.87;100.00;99470.47;5026569;28;20483;-82
2021/07/13 01:19:38;;;;;;;0.40;0.20;;;;;;;20.86;100.00;99470.59;5016805;28;20458;-82
2021/07/13 01:22:08;;;;;;;0.50;0.43;;;;;;;20.90;100.00;99463.94;5024903;28;20468;-83
2021/07/13 01:24:41;;;;;;;0.50;0.40;;;;;;;20.85;100.00;99468.88;5026522;28;20511;-82
2021/07/13 01:27:14;;;;;;;0.50;0.40;;;;;;;20.81;100.00;99470.09;5027351;28;20916;-82
2021/07/13 01:29:43;;;;;;;0.40;0.20;;;;;;;20.85;100.00;99464.34;5025421;28;20460;-82
2021/07/13 01:32:16;;;;;;;0.40;0.33;;;;;;;20.95;100.00;99467.09;5025781;28;20427;-81
2021/07/13 01:34:48;;;;;;;0.40;0.30;;;;;;;20.84;100.00;99456.38;5026081;28;20478;-81
2021/07/13 01:37:15;;;;;;;0.40;0.20;;;;;;;20.66;100.00;99462.31;5025054;28;20941;-81
2021/07/13 01:39:43;;;;;;;0.40;0.30;;;;;;;20.40;100.00;99453.63;5026294;28;20756;-81
2021/07/13 01:42:11;;;;;;;0.40;0.20;;;;;;;20.43;100.00;99462.53;5026934;28;20454;-81
2021/07/13 01:44:39;;;;;;;0.70;0.70;;;;;;;20.25;100.00;99468.38;5026972;28;20473;-82
2021/07/13 01:47:06;;;;;;;0.70;0.57;;;;;;;20.48;100.00;99460.28;5025391;28;20472;-81
2021/07/13 01:49:34;;;;;;;0.50;0.30;;;;;;;20.54;100.00;99455.22;5025646;28;20488;-81
2021/07/13 01:52:03;;;;;;;0.40;0.30;;;;;;;20.51;100.00;99452.78;5024666;28;20501;-81
2021/07/13 01:54:33;;;;;;;0.40;0.20;;;;;;;20.58;100.00;99456.69;5033169;28;20487;-81
2021/07/13 01:57:00;;;;;;;0.40;0.30;;;;;;;20.70;100.00;99458.38;5024656;28;20487;-81
2021/07/13 01:59:29;;;;;;;0.40;0.20;;;;;;;20.65;100.00;99449.78;5030681;28;20483;-81
2021/07/13 02:02:02;;;;;;;0.40;0.20;;;;;;;20.73;100.00;99459.09;5024903;28;20446;-81
2021/07/13 02:04:30;;;;;;;0.83;0.83;;;;;;;20.79;100.00;99459.44;5026193;28;20472;-82
2021/07/13 02:07:00;;;;;;;0.80;0.77;;;;;;;20.85;100.00;99463.47;5026895;28;20480;-81
2021/07/13 02:09:28;;;;;;;0.50;0.50;;;;;;;20.88;100.00;99455.97;5027142;28;20431;-81
2021/07/13 02:11:56;;;;;;;0.50;0.40;;;;;;;20.58;100.00;99445.03;5025750;28;20452;-81
2021/07/13 02:14:23;;;;;;;0.40;0.20;;;;;;;20.46;100.00;99446.06;5017437;28;20484;-80
2021/07/13 02:16:51;;;;;;;0.40;0.30;;;;;;;20.63;100.00;99451.75;5018410;28;20452;-80
2021/07/13 02:19:18;;;;;;;1.03;1.03;;;;;;;20.51;100.00;99446.53;5019224;28;20456;-80
2021/07/13 02:21:45;;;;;;;0.40;0.30;;;;;;;20.35;100.00;99433.41;5019140;28;20953;-81
2021/07/13 02:24:12;;;;;;;0.50;0.40;;;;;;;20.66;100.00;99450.66;5020041;28;20463;-80
2021/07/13 02:26:44;;;;;;;0.40;0.20;;;;;;;20.81;100.00;99451.19;5018787;28;20472;-81
2021/07/13 02:29:13;;;;;;;0.40;0.20;;;;;;;20.43;100.00;99443.63;5019219;28;20468;-81
2021/07/13 02:31:53;;;;;;;0.40;0.20;;;;;;;20.27;100.00;99455.63;5020105;28;20487;-80
2021/07/13 02:34:25;;;;;;;0.40;0.20;;;;;;;20.03;100.00;99453.09;5024585;28;20523;-80
2021/07/13 02:36:56;;;;;;;0.40;0.30;;;;;;;20.07;100.00;99461.81;5017687;28;20432;-81
2021/07/13 02:39:24;;;;;;;0.40;0.30;;;;;;;20.24;100.00;99465.81;5019686;28;20520;-80
2021/07/13 02:41:53;;;;;;;0.40;0.20;;;;;;;20.25;100.00;99471.09;5021692;28;20462;-80
2021/07/13 02:44:23;;;;;;;0.40;0.30;;;;;;;20.35;100.00;99469.34;5019597;28;20488;-81
2021/07/13 02:46:51;;;;;;;0.40;0.20;;;;;;;20.56;100.00;99466.78;5035719;28;20915;-80
2021/07/13 02:49:22;;;;;;;0.50;0.33;;;;;;;20.63;100.00;99476.06;5019556;28;20431;-80
2021/07/13 02:51:53;;;;;;;1.40;1.40;;;;;;;20.74;100.00;99483.28;5021159;28;20453;-81
2021/07/13 02:54:27;;;;;;;0.40;0.20;;;;;;;20.74;100.00;99479.72;5019584;28;20492;-81
2021/07/13 02:56:56;;;;;;;0.40;0.20;;;;;;;20.75;100.00;99490.41;5018456;28;20431;-81
2021/07/13 02:59:25;;;;;;;0.40;0.20;;;;;;;20.73;100.00;99483.41;5026575;28;20514;-81
2021/07/13 03:01:52;;;;;;;0.40;0.30;;;;;;;20.75;100.00;99482.28;5018967;28;20781;-80
2021/07/13 03:04:21;;;;;;;0.40;0.20;;;;;;;20.64;100.00;99466.13;5016825;28;20884;-81
2021/07/13 03:06:48;;;;;;;0.40;0.20;;;;;;;20.70;100.00;99488.09;5018143;28;20428;-80
2021/07/13 03:09:15;;;;;;;0.50;0.40;;;;;;;20.63;100.00;99481.47;5017371;28;20550;-80
2021/07/13 03:11:43;;;;;;;0.40;0.30;;;;;;;20.68;100.00;99481.06;5017574;28;20464;-80
2021/07/13 03:14:14;;;;;;;0.80;0.80;;;;;;;20.63;100.00;99467.97;5018798;28;20444;-80
2021/07/13 03:16:42;;;;;;;0.40;0.30;;;;;;;20.73;100.00;99478.00;5017559;28;20471;-80
2021/07/13 03:19:10;;;;;;;0.40;0.30;;;;;;;20.68;100.00;99463.03;5019905;28;20497;-81
2021/07/13 03:21:51;;;;;;;0.87;0.47;;;;;;;20.46;100.00;99460.41;5020080;28;20457;-81
2021/07/13 03:24:21;;;;;;;0.40;0.20;;;;;;;20.46;100.00;99446.06;5011717;28;20488;-80
2021/07/13 03:26:49;;;;;;;0.87;0.87;;;;;;;20.29;100.00;99442.88;5020281;28;20514;-80
2021/07/13 03:29:17;;;;;;;0.97;0.97;;;;;;;20.29;100.00;99442.88;5014998;28;20514;-80
2021/07/13 03:31:45;;;;;;;0.40;0.27;;;;;;;20.32;100.00;99439.94;5016483;28;20502;-80
2021/07/13 03:34:13;;;;;;;0.40;0.23;;;;;;;20.40;100.00;99431.19;5014003;28;21381;-81
2021/07/13 03:36:41;;;;;;;0.40;0.20;;;;;;;20.25;100.00;99436.00;5021580;28;20842;-81
2021/07/13 03:39:08;;;;;;;0.40;0.20;;;;;;;20.28;100.00;99441.13;5015142;28;20435;-80
2021/07/13 03:41:36;;;;;;;0.63;0.63;;;;;;;20.23;100.00;99432.56;5036341;28;20456;-81
2021/07/13 03:44:05;;;;;;;0.40;0.30;;;;;;;20.36;100.00;99433.28;5020113;28;20566;-81
2021/07/13 03:46:36;;;;;;;0.40;0.20;;;;;;;20.19;100.00;99435.66;5018840;28;20460;-81
2021/07/13 03:49:07;;;;;;;0.40;0.20;;;;;;;20.03;100.00;99436.06;5020316;28;20475;-81
2021/07/13 03:51:46;;;;;;;0.40;0.20;;;;;;;20.05;100.00;99424.16;5018825;28;20472;-81
2021/07/13 03:54:16;;;;;;;0.57;0.57;;;;;;;19.97;100.00;99415.81;5018910;28;20850;-80
2021/07/13 03:56:43;;;;;;;0.40;0.20;;;;;;;19.72;100.00;99408.00;5018898;28;20461;-80
2021/07/13 03:59:10;;;;;;;1.33;0.97;;;;;;;19.88;100.00;99415.72;5018680;28;20505;-80
2021/07/13 04:01:37;;;;;;;3.90;2.20;;;;;;;20.05;100.00;99415.22;5019105;28;20464;-80
2021/07/13 04:04:04;;;;;;;0.40;0.30;;;;;;;20.13;100.00;99410.88;5020079;28;20467;-80
2021/07/13 04:06:32;;;;;;;0.40;0.30;;;;;;;20.15;100.00;99410.78;5020815;28;20458;-80
2021/07/13 04:09:00;;;;;;;0.40;0.20;;;;;;;19.96;100.00;99405.16;5035704;28;20436;-79
2021/07/13 04:11:27;;;;;;;0.40;0.20;;;;;;;19.80;100.00;99398.31;5020253;28;20460;-80
2021/07/13 04:13:53;;;;;;;0.40;0.30;;;;;;;19.88;100.00;99396.84;5020735;28;21062;-79
2021/07/13 04:16:20;;;;;;;0.40;0.30;;;;;;;19.93;100.00;99400.88;5020185;28;20537;-80
2021/07/13 04:18:47;;;;;;;0.50;0.40;;;;;;;19.94;100.00;99381.00;5018933;28;20865;-80
2021/07/13 04:21:14;;;;;;;0.40;0.30;;;;;;;19.99;100.00;99399.50;5023165;28;20430;-80
2021/07/13 04:23:41;;;;;;;0.50;0.50;;;;;;;19.97;100.00;99383.44;5020058;28;20471;-80
2021/07/13 04:26:07;;;;;;;0.40;0.20;;;;;;;19.97;100.00;99361.00;5012061;28;20995;-80
2021/07/13 04:28:34;;;;;;;0.40;0.20;;;;;;;20.01;100.00;99376.84;5025223;28;20452;-80
2021/07/13 04:31:03;;;;;;;0.40;0.30;;;;;;;20.04;100.00;99371.19;5018475;28;20430;-80
2021/07/13 04:33:30;;;;;;;0.40;0.20;;;;;;;20.02;100.00;99373.16;5021514;28;20446;-80
2021/07/13 04:36:00;;;;;;;0.40;0.20;;;;;;;20.16;100.00;99380.09;5024744;28;20431;-80
2021/07/13 04:38:27;;;;;;;0.40;0.20;;;;;;;20.20;100.00;99389.66;5024530;28;20452;-81
2021/07/13 04:40:54;;;;;;;0.50;0.40;;;;;;;20.23;100.00;99386.69;5041383;28;20427;-81
2021/07/13 04:43:21;;;;;;;0.77;0.60;;;;;;;20.22;100.00;99393.06;5039691;28;20916;-83
2021/07/13 04:45:48;;;;;;;0.60;0.53;;;;;;;20.17;100.00;99387.22;5020700;28;20879;-80
2021/07/13 04:48:14;;;;;;;0.40;0.20;;;;;;;20.17;100.00;99376.41;5020070;28;20457;-81
2021/07/13 04:50:42;;;;;;;0.40;0.20;;;;;;;20.02;100.00;99386.63;5019323;28;20449;-81
2021/07/13 04:53:08;;;;;;;0.40;0.20;;;;;;;20.00;100.00;99380.47;5021198;28;20469;-82
2021/07/13 04:55:35;;;;;;;2.10;2.10;;;;;;;19.99;100.00;99386.00;5020209;28;20431;-83
2021/07/13 04:58:02;;;;;;;0.40;0.20;;;;;;;19.95;100.00;99384.56;5021929;28;20463;-81
2021/07/13 05:00:28;;;;;;;0.60;0.53;;;;;;;20.07;100.00;99395.19;5021108;28;20448;-81
2021/07/13 05:02:55;;;;;;;0.77;0.77;;;;;;;19.86;100.00;99393.38;5022012;28;20487;-80
2021/07/13 05:05:22;;;;;;;0.40;0.20;;;;;;;19.81;100.00;99400.03;5018714;28;20428;-81
2021/07/13 05:07:50;;;;;;;0.50;0.40;;;;;;;19.60;100.00;99393.69;5019796;28;20435;-80
2021/07/13 05:10:17;;;;;;;0.50;0.50;;;;;;;19.88;100.00;99392.31;5021313;28;20511;-79
2021/07/13 05:12:44;;;;;;;0.40;0.20;;;;;;;19.96;100.00;99380.88;5036689;28;20462;-80
2021/07/13 05:15:13;;;;;;;0.40;0.20;;;;;;;20.01;100.00;99384.94;5019901;28;20504;-81
2021/07/13 05:17:40;;;;;;;0.40;0.20;;;;;;;20.10;100.00;99391.38;5021822;28;20419;-80
2021/07/13 05:20:10;;;;;;;0.40;0.20;;;;;;;20.10;100.00;99391.38;5024407;28;20483;-80
2021/07/13 05:22:37;;;;;;;0.40;0.20;;;;;;;20.20;100.00;99383.41;5022870;28;20458;-80
2021/07/13 05:25:07;;;;;;;0.40;0.23;;;;;;;20.25;100.00;99378.47;5017572;28;20508;-80
2021/07/13 05:27:42;;;;;;;0.40;0.20;;;;;;;20.18;100.00;99374.56;5029282;28;20431;-80
2021/07/13 05:30:10;;;;;;;0.40;0.20;;;;;;;20.25;100.00;99373.06;5023604;28;20836;-79
2021/07/13 05:32:37;;;;;;;0.40;0.27;;;;;;;20.37;100.00;99372.91;5017666;28;20457;-81
2021/07/13 05:35:06;;;;;;;0.50;0.40;;;;;;;20.46;100.00;99382.13;5020665;28;20893;-80
2021/07/13 05:37:33;;;;;;;0.40;0.30;;;;;;;20.39;100.00;99372.78;5015687;28;20430;-80
2021/07/13 05:40:05;;;;;;;0.40;0.20;;;;;;;20.46;100.00;99383.97;5017593;28;20941;-80
2021/07/13 05:42:32;;;;;;;0.50;0.50;;;;;;;20.44;100.00;99365.19;5017853;28;20463;-80
2021/07/13 05:45:00;;;;;;;0.40;0.20;;;;;;;20.43;100.00;99371.59;5012347;28;20497;-80
2021/07/13 05:47:27;;;;;;;0.50;0.33;;;;;;;20.36;100.00;99360.38;5013898;28;20453;-80
2021/07/13 05:49:56;;;;;;;0.50;0.40;;;;;;;20.45;100.00;99374.16;5014789;28;20891;-80
2021/07/13 05:52:22;;;;;;;0.40;0.20;;;;;;;20.60;100.00;99380.94;5014720;28;20535;-80
2021/07/13 05:54:49;;;;;;;0.40;0.30;;;;;;;20.62;100.00;99387.06;5014052;28;20543;-80
2021/07/13 05:57:16;;;;;;;0.50;0.40;;;;;;;20.52;100.00;99383.44;5014486;28;20984;-79
2021/07/13 05:59:43;;;;;;;0.73;0.70;;;;;;;20.53;100.00;99387.84;5007632;28;20435;-80
2021/07/13 06:02:10;;;;;;;0.50;0.50;;;;;;;20.60;100.00;99389.91;5014793;28;20460;-80
2021/07/13 06:04:36;;;;;;;0.40;0.20;;;;;;;20.55;100.00;99380.47;5015328;28;20922;-80
2021/07/13 06:07:03;;;;;;;0.40;0.30;;;;;;;20.46;100.00;99381.25;5019006;28;20461;-80
2021/07/13 06:09:30;;;;;;;0.40;0.20;;;;;;;20.56;100.00;99380.38;5017363;28;20939;-80
2021/07/13 06:11:58;;;;;;;0.40;0.30;;;;;;;20.45;100.00;99380.41;5016181;28;20523;-80
2021/07/13 06:14:24;;;;;;;0.50;0.30;;;;;;;20.16;100.00;99379.25;5016433;28;20712;-80
2021/07/13 06:17:07;;;;;;;0.50;0.40;;;;;;;19.97;100.00;99369.94;5019501;28;20528;-83
2021/07/13 06:19:34;;;;;;;0.40;0.20;;;;;;;20.17;100.00;99370.16;5023005;28;20449;-83
2021/07/13 06:22:01;;;;;;;0.40;0.20;;;;;;;20.08;100.00;99353.75;5022942;28;20443;-83
2021/07/13 06:24:27;;;;;;;0.40;0.20;;;;;;;20.12;100.00;99349.78;5019190;28;20534;-83
2021/07/13 06:26:54;;;;;;;0.40;0.20;;;;;;;20.05;100.00;99361.25;5010208;28;20519;-83
2021/07/13 06:29:22;;;;;;;0.40;0.30;;;;;;;20.12;100.00;99357.03;5019438;28;20779;-83
2021/07/13 06:31:51;;;;;;;0.50;0.30;;;;;;;20.20;100.00;99365.38;5017737;28;20439;-83
2021/07/13 06:34:19;;;;;;;0.40;0.20;;;;;;;20.11;100.00;99369.66;5025524;28;20464;-83
2021/07/13 06:36:47;;;;;;;0.40;0.30;;;;;;;20.06;100.00;99379.16;5026905;28;20435;-83
2021/07/13 06:39:14;;;;;;;0.40;0.30;;;;;;;20.13;100.00;99378.50;5025766;28;20427;-83
2021/07/13 06:41:41;;;;;;;0.40;0.30;;;;;;;20.14;100.00;99387.44;5015689;28;20431;-83
2021/07/13 06:44:09;;;;;;;0.40;0.20;;;;;;;20.29;100.00;99390.75;5015660;28;20488;-83
2021/07/13 06:46:37;;;;;;;0.40;0.20;;;;;;;20.29;100.00;99390.75;5016484;28;20447;-82
2021/07/13 06:49:04;;;;;;;2.20;0.73;;;;;;;20.07;100.00;99392.50;5017085;28;20480;-80
2021/07/13 06:51:36;;;;;;;0.50;0.47;;;;;;;20.22;100.00;99387.69;5018613;28;20456;-80
2021/07/13 06:54:18;;;;;;;0.40;0.30;;;;;;;19.96;100.00;99357.44;5023162;28;20463;-80
2021/07/13 06:57:11;;;;;;;0.40;0.20;;;;;;;20.18;100.00;99388.06;5010176;28;20456;-83
2021/07/13 06:59:38;;;;;;;0.90;0.73;;;;;;;20.17;100.00;99405.25;5019603;28;20452;-80
2021/07/13 07:02:04;;;;;;;0.40;0.20;;;;;;;20.16;100.00;99396.28;5012635;28;20464;-80
2021/07/13 07:04:31;;;;;;;0.40;0.20;;;;;;;20.18;100.00;99398.88;5010541;28;21078;-79
2021/07/13 07:06:58;;;;;;;0.60;0.60;;;;;;;20.09;100.00;99393.22;5014456;28;20427;-80
2021/07/13 07:09:24;;;;;;;0.40;0.20;;;;;;;20.07;100.00;99386.25;5018175;28;20435;-80
2021/07/13 07:11:51;;;;;;;0.40;0.20;;;;;;;20.14;100.00;99400.94;5020820;28;20471;-80
2021/07/13 07:14:18;;;;;;;0.50;0.40;;;;;;;20.25;100.00;99397.34;5015155;28;20460;-81
2021/07/13 07:16:46;;;;;;;0.40;0.30;;;;;;;20.13;100.00;99393.81;5020464;28;20448;-80
2021/07/13 07:19:12;;;;;;;0.40;0.20;;;;;;;20.28;100.00;99397.94;5037575;28;20427;-80
2021/07/13 07:21:39;;;;;;;0.50;0.37;;;;;;;20.23;100.00;99396.63;5042887;28;20924;-81
2021/07/13 07:24:05;;;;;;;0.40;0.20;;;;;;;20.39;100.00;99405.16;5036335;28;20496;-80
2021/07/13 07:26:32;;;;;;;0.40;0.20;;;;;;;20.51;100.00;99416.81;5012314;28;20462;-81
2021/07/13 07:28:59;;;;;;;1.03;1.03;;;;;;;20.41;100.00;99406.78;5023004;28;20435;-81
2021/07/13 07:31:25;;;;;;;0.40;0.30;;;;;;;20.53;100.00;99415.69;5022193;28;20486;-81
2021/07/13 07:33:52;;;;;;;0.40;0.20;;;;;;;20.60;100.00;99419.63;5020699;28;20472;-81
2021/07/13 07:36:25;;;;;;;0.40;0.30;;;;;;;20.57;100.00;99424.44;5022249;28;20968;-80
2021/07/13 07:38:51;;;;;;;0.40;0.20;;;;;;;20.62;100.00;99422.19;5024234;28;20506;-80
2021/07/13 07:41:19;;;;;;;0.53;0.53;;;;;;;20.70;100.00;99422.41;5024149;28;20439;-81
2021/07/13 07:43:49;;;;;;;0.40;0.30;;;;;;;20.67;100.00;99428.03;5039566;28;20447;-81
2021/07/13 07:46:16;;;;;;;0.40;0.30;;;;;;;20.75;100.00;99422.00;5024368;28;20803;-81
2021/07/13 07:48:43;;;;;;;0.50;0.37;;;;;;;20.72;100.00;99420.44;5039642;28;20452;-80
2021/07/13 07:51:09;;;;;;;0.40;0.20;;;;;;;20.67;100.00;99415.41;5024252;28;20442;-81
2021/07/13 07:53:36;;;;;;;0.40;0.20;;;;;;;20.82;100.00;99413.25;5024426;28;20504;-81
2021/07/13 07:56:03;;;;;;;1.37;1.37;;;;;;;20.95;100.00;99405.81;5043971;28;20870;-81
2021/07/13 07:58:31;;;;;;;0.40;0.30;;;;;;;20.95;100.00;99408.50;5025090;28;20456;-81
2021/07/13 08:00:58;;;;;;;0.50;0.40;;;;;;;20.92;100.00;99402.50;5041819;28;20487;-81
2021/07/13 08:03:24;;;;;;;0.50;0.37;;;;;;;21.06;100.00;99401.31;5023179;28;20861;-81
2021/07/13 08:05:55;;;;;;;0.40;0.20;;;;;;;21.12;100.00;99400.81;5024483;28;20466;-82
2021/07/13 08:08:23;;;;;;;0.50;0.40;;;;;;;21.08;100.00;99396.66;5024402;28;20429;-82
2021/07/13 08:10:50;;;;;;;0.40;0.30;;;;;;;20.90;100.00;99391.84;5023731;28;20426;-81
2021/07/13 08:13:16;;;;;;;0.43;0.27;;;;;;;20.73;100.00;99397.84;5022629;28;20475;-81
2021/07/13 08:15:43;;;;;;;0.40;0.30;;;;;;;20.67;100.00;99395.63;5024572;28;20980;-82
2021/07/13 08:18:10;;;;;;;0.40;0.30;;;;;;;20.67;100.00;99401.03;5038788;28;20419;-81
2021/07/13 08:20:36;;;;;;;0.40;0.20;;;;;;;20.60;100.00;99405.25;5029696;28;20463;-81
2021/07/13 08:23:03;;;;;;;0.40;0.20;;;;;;;20.59;100.00;99406.25;5023692;28;20456;-81
2021/07/13 08:25:30;;;;;;;0.40;0.30;;;;;;;20.52;100.00;99400.50;5027529;28;20527;-81
2021/07/13 08:27:57;;;;;;;0.63;0.63;;;;;;;20.56;100.00;99415.47;5020428;28;20448;-81
2021/07/13 08:30:24;;;;;;;9.67;1.63;;;;;;;20.70;100.00;99409.75;5021352;28;20514;-82
2021/07/13 08:32:51;;;;;;;0.40;0.20;;;;;;;20.72;100.00;99412.34;5035440;28;20511;-81
2021/07/13 08:35:17;;;;;;;0.40;0.20;;;;;;;20.78;100.00;99408.25;5035239;28;20430;-82
2021/07/13 08:37:44;;;;;;;0.40;0.30;;;;;;;20.80;100.00;99398.16;5034470;28;20813;-81
2021/07/13 08:40:12;;;;;;;0.40;0.20;;;;;;;20.82;100.00;99415.94;5033791;28;21009;-82
2021/07/13 08:42:41;;;;;;;0.40;0.30;;;;;;;20.76;100.00;99413.78;5033962;28;20423;-81
2021/07/13 08:45:19;;;;;;;0.40;0.20;;;;;;;20.46;100.00;99411.81;5033029;28;20507;-82
2021/07/13 08:47:48;;;;;;;0.47;0.27;;;;;;;20.40;100.00;99396.94;5007934;28;20484;-81
2021/07/13 08:50:17;;;;;;;0.40;0.20;;;;;;;20.49;100.00;99408.00;5034316;28;20949;-82
2021/07/13 08:52:44;;;;;;;0.60;0.40;;;;;;;20.63;100.00;99410.41;5018429;28;20506;-81
2021/07/13 08:55:12;;;;;;;0.40;0.20;;;;;;;20.76;100.00;99412.91;5032155;28;20472;-81
2021/07/13 08:57:40;;;;;;;1.50;1.37;;;;;;;20.85;100.00;99417.56;5017011;28;20522;-82
2021/07/13 09:00:09;;;;;;;0.40;0.20;;;;;;;20.77;100.00;99411.94;5018228;28;20444;-80
2021/07/13 09:02:36;;;;;;;0.40;0.20;;;;;;;20.71;100.00;99429.53;5019097;28;20824;-81
2021/07/13 09:05:04;;;;;;;1.10;0.63;;;;;;;20.39;100.00;99410.56;5019196;28;20550;-80
2021/07/13 09:07:30;;;;;;;3.60;0.63;;;;;;;20.44;100.00;99427.28;5036723;28;20848;-82
2021/07/13 09:10:05;;;;;;;0.50;0.50;;;;;;;20.40;100.00;99425.78;5035874;28;20426;-81
2021/07/13 09:12:32;;;;;;;0.83;0.83;;;;;;;20.59;100.00;99439.50;5017598;28;20426;-81
2021/07/13 09:15:01;;;;;;;0.40;0.20;;;;;;;20.67;100.00;99439.72;5031848;28;20497;-81
2021/07/13 09:17:33;;;;;;;0.40;0.20;;;;;;;20.38;100.00;99431.31;5016944;28;20456;-81
2021/07/13 09:20:06;;;;;;;0.40;0.20;;;;;;;20.47;100.00;99427.03;5020576;28;20481;-81
2021/07/13 09:22:58;;;;;;;0.40;0.20;;;;;;;20.43;100.00;99414.78;5023546;28;20455;-81
2021/07/13 09:25:37;;;;;;;2.03;0.60;;;;;;;20.35;100.00;99411.81;5016885;28;20519;-81
2021/07/13 09:28:13;;;;;;;0.40;0.20;;;;;;;20.32;100.00;99412.94;5016745;28;20496;-81
2021/07/13 09:30:53;;;;;;;0.40;0.20;;;;;;;20.44;100.00;99423.72;5017419;28;20443;-81
2021/07/13 09:33:25;;;;;;;0.40;0.20;;;;;;;20.41;100.00;99417.56;5004074;28;20453;-81
2021/07/13 09:36:01;;;;;;;0.40;0.20;;;;;;;20.54;100.00;99424.66;5017191;28;20431;-81
2021/07/13 09:38:30;;;;;;;0.40;0.20;;;;;;;20.39;100.00;99424.91;5016026;28;20427;-81
2021/07/13 09:41:03;;;;;;;0.40;0.20;;;;;;;20.36;100.00;99425.19;5015579;28;20515;-81
2021/07/13 09:43:39;;;;;;;0.73;0.73;;;;;;;20.47;100.00;99424.31;5016863;28;20898;-81
2021/07/13 09:46:28;;;;;;;0.40;0.30;;;;;;;20.58;100.00;99420.75;5014808;28;21078;-81
2021/07/13 09:49:14;;;;;;;0.40;0.20;;;;;;;20.70;100.00;99433.22;5015467;28;20445;-81
2021/07/13 09:51:43;;;;;;;0.40;0.20;;;;;;;20.76;100.00;99427.28;5031027;28;20453;-81
2021/07/13 09:54:32;;;;;;;0.40;0.20;;;;;;;20.84;100.00;99423.94;5015696;28;20564;-82
2021/07/13 09:57:07;;;;;;;0.50;0.50;;;;;;;20.81;100.00;99429.59;5015211;28;20475;-81
2021/07/13 09:59:35;;;;;;;0.40;0.20;;;;;;;20.77;100.00;99429.00;5030703;28;20423;-81
2021/07/13 10:02:04;;;;;;;1.20;1.10;;;;;;;20.88;100.00;99423.53;5013895;28;20416;-81
2021/07/13 10:04:31;;;;;;;0.50;0.30;;;;;;;20.89;100.00;99422.56;5013509;28;20492;-81
2021/07/13 10:07:12;;;;;;;0.40;0.30;;;;;;;21.03;100.00;99417.81;5014160;28;21003;-81
2021/07/13 10:09:43;;;;;;;0.40;0.20;;;;;;;21.12;100.00;99422.44;5014625;28;20477;-81
2021/07/13 10:12:14;;;;;;;1.23;0.63;;;;;;;21.13;100.00;99424.16;5015529;28;20498;-81
2021/07/13 10:14:44;;;;;;;0.40;0.20;;;;;;;21.19;100.00;99426.31;5014398;28;20504;-81
2021/07/13 10:17:11;;;;;;;0.60;0.53;;;;;;;21.22;100.00;99418.78;5031467;28;20995;-81
2021/07/13 10:20:06;;;;;;;0.40;0.20;;;;;;;21.34;100.00;99433.13;5031258;28;20836;-81
2021/07/13 10:22:35;;;;;;;0.40;0.20;;;;;;;21.28;100.00;99428.25;5014738;28;20423;-81
2021/07/13 10:25:03;;;;;;;0.40;0.20;;;;;;;21.28;100.00;99429.13;5014433;28;20497;-81
2021/07/13 10:27:31;;;;;;;0.40;0.20;;;;;;;21.41;100.00;99423.50;5014528;28;20888;-81
2021/07/13 10:30:09;;;;;;;0.40;0.20;;;;;;;21.55;100.00;99427.69;5002275;28;20496;-81
2021/07/13 10:32:41;;;;;;;0.50;0.50;;;;;;;21.45;100.00;99430.34;5016102;28;20427;-81
2021/07/13 10:35:31;;;;;;;0.40;0.20;;;;;;;21.32;100.00;99432.41;5018608;28;20507;-81
2021/07/13 10:38:20;;;;;;;0.40;0.37;;;;;;;21.31;100.00;99433.41;5032095;28;20983;-81
2021/07/13 10:40:49;;;;;;;0.40;0.20;;;;;;;21.30;100.00;99428.97;5013993;28;20427;-81
2021/07/13 10:43:23;;;;;;;0.40;0.30;;;;;;;21.31;100.00;99421.72;5013169;28;21075;-81
2021/07/13 10:46:08;;;;;;;0.40;0.30;;;;;;;21.09;100.00;99428.94;5013745;28;20462;-81
2021/07/13 10:48:38;;;;;;;0.40;0.20;;;;;;;21.11;100.00;99426.13;5030640;28;20415;-81
2021/07/13 10:51:07;;;;;;;0.40;0.20;;;;;;;21.23;100.00;99435.84;5030503;28;20415;-81
2021/07/13 10:53:40;;;;;;;0.40;0.20;;;;;;;21.32;100.00;99428.84;5030006;28;20851;-81
2021/07/13 10:56:32;;;;;;;4.20;1.70;;;;;;;21.37;100.00;99432.84;5029515;28;20419;-81
2021/07/13 10:58:58;;;;;;;0.40;0.20;;;;;;;21.30;100.00;99426.28;5014344;28;20492;-81
2021/07/13 11:01:28;;;;;;;0.60;0.60;;;;;;;21.36;100.00;99428.44;5030001;28;20431;-81
2021/07/13 11:03:59;;;;;;;0.40;0.20;;;;;;;21.51;100.00;99418.13;5029404;28;20469;-81
2021/07/13 11:06:46;;;;;;;0.40;0.20;;;;;;;21.63;100.00;99410.78;5012666;28;20466;-81
2021/07/13 11:09:30;;;;;;;0.60;0.60;;;;;;;21.77;100.00;99419.38;5013965;28;20431;-81
2021/07/13 11:12:12;;;;;;;0.40;0.30;;;;;;;21.83;100.00;99416.16;5014111;28;20427;-81
2021/07/13 11:14:50;;;;;;;0.47;0.30;;;;;;;21.81;100.00;99418.13;5029709;28;20803;-81
2021/07/13 11:17:21;;;;;;;0.60;0.60;;;;;;;21.78;100.00;99431.06;5013316;28;20499;-81
2021/07/13 11:19:48;;;;;;;0.60;0.50;;;;;;;21.69;100.00;99424.63;5016753;28;20506;-81
2021/07/13 11:22:16;;;;;;;1.23;0.70;;;;;;;21.76;100.00;99425.78;5038014;28;20456;-80
2021/07/13 11:24:43;;;;;;;0.40;0.20;;;;;;;21.69;100.00;99421.94;5029764;28;20434;-81
2021/07/13 11:27:10;;;;;;;0.80;0.80;;;;;;;21.65;100.00;99422.31;5029543;28;20464;-81
2021/07/13 11:29:38;;;;;;;0.43;0.30;;;;;;;21.64;100.00;99415.19;5029076;28;20435;-81
2021/07/13 11:32:05;;;;;;;0.40;0.20;;;;;;;21.74;100.00;99416.97;5022099;28;20937;-81
2021/07/13 11:34:37;;;;;;;0.40;0.20;;;;;;;21.73;100.00;99426.06;5012898;28;20464;-81
2021/07/13 11:37:06;;;;;;;0.40;0.20;;;;;;;21.71;100.00;99424.50;5012524;28;20434;-81